sensor_id;sensor_type;location;lat;lon;timestamp;temperature;humidity
13412;DHT22;67102;51.666;6.880;2023-04-02T00:01:16;10.70;91.10
13412;DHT22;67102;51.666;6.880;2023-04-02T00:04:06;10.70;91.20
13412;DHT22;67102;51.666;6.880;2023-04-02T00:06:37;10.60;91.10
13412;DHT22;67102;51.666;6.880;2023-04-02T00:09:19;10.50;91.20
13412;DHT22;67102;51.666;6.880;2023-04-02T00:11:51;10.50;91.20
13412;DHT22;67102;51.666;6.880;2023-04-02T00:14:22;10.40;91.20
13412;DHT22;67102;51.666;6.880;2023-04-02T00:16:50;10.30;91.10
13412;DHT22;67102;51.666;6.880;2023-04-02T00:19:22;10.30;91.20
13412;DHT22;67102;51.666;6.880;2023-04-02T00:21:50;10.20;91.30
13412;DHT22;67102;51.666;6.880;2023-04-02T00:24:20;10.20;91.30
13412;DHT22;67102;51.666;6.880;2023-04-02T00:26:49;10.20;91.30
13412;DHT22;67102;51.666;6.880;2023-04-02T00:29:17;10.30;91.50
13412;DHT22;67102;51.666;6.880;2023-04-02T00:31:46;10.30;91.30
13412;DHT22;67102;51.666;6.880;2023-04-02T00:34:16;10.30;91.10
13412;DHT22;67102;51.666;6.880;2023-04-02T00:36:45;10.30;91.30
13412;DHT22;67102;51.666;6.880;2023-04-02T00:39:16;10.30;90.80
13412;DHT22;67102;51.666;6.880;2023-04-02T00:41:44;10.30;90.90
13412;DHT22;67102;51.666;6.880;2023-04-02T00:44:12;10.20;90.80
13412;DHT22;67102;51.666;6.880;2023-04-02T00:46:41;10.20;90.60
13412;DHT22;67102;51.666;6.880;2023-04-02T00:49:11;9.90;90.70
13412;DHT22;67102;51.666;6.880;2023-04-02T00:51:46;10.10;90.80
13412;DHT22;67102;51.666;6.880;2023-04-02T00:54:18;10.10;91.00
13412;DHT22;67102;51.666;6.880;2023-04-02T00:56:48;10.10;91.10
13412;DHT22;67102;51.666;6.880;2023-04-02T00:59:24;10.10;91.10
13412;DHT22;67102;51.666;6.880;2023-04-02T01:01:55;10.20;91.20
13412;DHT22;67102;51.666;6.880;2023-04-02T01:04:28;10.30;90.90
13412;DHT22;67102;51.666;6.880;2023-04-02T01:09:30;10.20;90.50
13412;DHT22;67102;51.666;6.880;2023-04-02T01:12:23;10.10;90.60
13412;DHT22;67102;51.666;6.880;2023-04-02T01:15:02;10.10;90.80
13412;DHT22;67102;51.666;6.880;2023-04-02T01:17:47;10.00;90.70
13412;DHT22;67102;51.666;6.880;2023-04-02T01:20:49;10.10;91.00
13412;DHT22;67102;51.666;6.880;2023-04-02T01:23:45;10.10;90.70
13412;DHT22;67102;51.666;6.880;2023-04-02T01:26:25;10.00;90.30
13412;DHT22;67102;51.666;6.880;2023-04-02T01:29:04;9.90;90.60
13412;DHT22;67102;51.666;6.880;2023-04-02T01:33:57;9.90;90.40
13412;DHT22;67102;51.666;6.880;2023-04-02T01:36:29;9.70;90.30
13412;DHT22;67102;51.666;6.880;2023-04-02T01:39:04;9.80;90.50
13412;DHT22;67102;51.666;6.880;2023-04-02T01:41:40;9.80;90.60
13412;DHT22;67102;51.666;6.880;2023-04-02T01:44:13;9.80;90.50
13412;DHT22;67102;51.666;6.880;2023-04-02T01:46:47;9.90;90.50
13412;DHT22;67102;51.666;6.880;2023-04-02T01:49:16;9.90;90.30
13412;DHT22;67102;51.666;6.880;2023-04-02T01:51:46;9.80;90.20
13412;DHT22;67102;51.666;6.880;2023-04-02T01:54:16;9.80;90.30
13412;DHT22;67102;51.666;6.880;2023-04-02T01:56:43;9.70;90.50
13412;DHT22;67102;51.666;6.880;2023-04-02T01:59:12;9.70;90.60
13412;DHT22;67102;51.666;6.880;2023-04-02T02:01:43;9.70;90.50
13412;DHT22;67102;51.666;6.880;2023-04-02T02:04:11;9.70;90.50
13412;DHT22;67102;51.666;6.880;2023-04-02T02:06:38;9.60;90.70
13412;DHT22;67102;51.666;6.880;2023-04-02T02:09:05;9.60;90.70
13412;DHT22;67102;51.666;6.880;2023-04-02T02:11:32;9.60;90.80
13412;DHT22;67102;51.666;6.880;2023-04-02T02:14:00;9.40;90.90
13412;DHT22;67102;51.666;6.880;2023-04-02T02:16:29;9.40;91.00
13412;DHT22;67102;51.666;6.880;2023-04-02T02:18:59;9.40;90.90
13412;DHT22;67102;51.666;6.880;2023-04-02T02:21:34;9.40;90.90
13412;DHT22;67102;51.666;6.880;2023-04-02T02:24:04;9.40;90.80
13412;DHT22;67102;51.666;6.880;2023-04-02T02:26:34;9.40;90.80
13412;DHT22;67102;51.666;6.880;2023-04-02T02:29:02;9.40;90.80
13412;DHT22;67102;51.666;6.880;2023-04-02T02:31:33;9.40;90.70
13412;DHT22;67102;51.666;6.880;2023-04-02T02:34:02;9.50;90.80
13412;DHT22;67102;51.666;6.880;2023-04-02T02:36:34;9.50;90.70
13412;DHT22;67102;51.666;6.880;2023-04-02T02:39:06;9.50;90.90
13412;DHT22;67102;51.666;6.880;2023-04-02T02:41:40;9.60;90.80
13412;DHT22;67102;51.666;6.880;2023-04-02T02:44:12;9.50;90.60
13412;DHT22;67102;51.666;6.880;2023-04-02T02:46:43;9.50;90.70
13412;DHT22;67102;51.666;6.880;2023-04-02T02:49:14;9.40;90.50
13412;DHT22;67102;51.666;6.880;2023-04-02T02:51:44;9.30;90.60
13412;DHT22;67102;51.666;6.880;2023-04-02T02:54:12;9.40;90.60
13412;DHT22;67102;51.666;6.880;2023-04-02T02:56:42;9.50;90.70
13412;DHT22;67102;51.666;6.880;2023-04-02T02:59:12;9.50;90.70
13412;DHT22;67102;51.666;6.880;2023-04-02T03:01:39;9.50;90.60
13412;DHT22;67102;51.666;6.880;2023-04-02T03:06:34;9.40;90.70
13412;DHT22;67102;51.666;6.880;2023-04-02T03:09:04;9.40;90.80
13412;DHT22;67102;51.666;6.880;2023-04-02T03:11:40;9.40;90.80
13412;DHT22;67102;51.666;6.880;2023-04-02T03:14:14;9.40;90.80
13412;DHT22;67102;51.666;6.880;2023-04-02T03:16:49;9.50;90.80
13412;DHT22;67102;51.666;6.880;2023-04-02T03:19:27;9.50;90.60
13412;DHT22;67102;51.666;6.880;2023-04-02T03:21:57;9.60;90.60
13412;DHT22;67102;51.666;6.880;2023-04-02T03:24:30;9.50;90.40
13412;DHT22;67102;51.666;6.880;2023-04-02T03:27:01;9.50;90.10
13412;DHT22;67102;51.666;6.880;2023-04-02T03:29:32;9.40;90.10
13412;DHT22;67102;51.666;6.880;2023-04-02T03:32:03;9.40;90.00
13412;DHT22;67102;51.666;6.880;2023-04-02T03:34:35;9.30;90.00
13412;DHT22;67102;51.666;6.880;2023-04-02T03:37:07;9.30;90.20
13412;DHT22;67102;51.666;6.880;2023-04-02T03:39:39;9.20;90.00
13412;DHT22;67102;51.666;6.880;2023-04-02T03:42:13;9.00;90.20
13412;DHT22;67102;51.666;6.880;2023-04-02T03:44:46;8.90;90.40
13412;DHT22;67102;51.666;6.880;2023-04-02T03:47:19;8.90;90.70
13412;DHT22;67102;51.666;6.880;2023-04-02T03:49:54;8.90;90.60
13412;DHT22;67102;51.666;6.880;2023-04-02T03:52:25;8.90;90.70
13412;DHT22;67102;51.666;6.880;2023-04-02T03:54:53;8.90;90.40
13412;DHT22;67102;51.666;6.880;2023-04-02T03:57:24;8.90;90.50
13412;DHT22;67102;51.666;6.880;2023-04-02T04:00:03;8.90;90.40
13412;DHT22;67102;51.666;6.880;2023-04-02T04:02:39;8.90;90.50
13412;DHT22;67102;51.666;6.880;2023-04-02T04:05:20;8.90;90.10
13412;DHT22;67102;51.666;6.880;2023-04-02T04:07:51;8.80;90.10
13412;DHT22;67102;51.666;6.880;2023-04-02T04:10:22;8.80;90.10
13412;DHT22;67102;51.666;6.880;2023-04-02T04:12:51;8.70;90.10
13412;DHT22;67102;51.666;6.880;2023-04-02T04:15:21;8.70;90.20
13412;DHT22;67102;51.666;6.880;2023-04-02T04:17:58;8.70;90.10
13412;DHT22;67102;51.666;6.880;2023-04-02T04:20:31;8.70;90.20
13412;DHT22;67102;51.666;6.880;2023-04-02T04:23:08;8.70;90.00
13412;DHT22;67102;51.666;6.880;2023-04-02T04:25:35;8.70;89.70
13412;DHT22;67102;51.666;6.880;2023-04-02T04:28:09;8.60;89.10
13412;DHT22;67102;51.666;6.880;2023-04-02T04:30:47;8.70;89.30
13412;DHT22;67102;51.666;6.880;2023-04-02T04:33:20;8.60;89.00
13412;DHT22;67102;51.666;6.880;2023-04-02T04:35:50;8.60;89.20
13412;DHT22;67102;51.666;6.880;2023-04-02T04:38:24;8.60;89.20
13412;DHT22;67102;51.666;6.880;2023-04-02T04:40:56;8.70;89.10
13412;DHT22;67102;51.666;6.880;2023-04-02T04:43:31;8.60;88.50
13412;DHT22;67102;51.666;6.880;2023-04-02T04:46:04;8.70;87.90
13412;DHT22;67102;51.666;6.880;2023-04-02T04:48:36;8.60;87.60
13412;DHT22;67102;51.666;6.880;2023-04-02T04:51:08;8.60;87.50
13412;DHT22;67102;51.666;6.880;2023-04-02T04:53:44;8.50;87.80
13412;DHT22;67102;51.666;6.880;2023-04-02T04:58:42;8.60;87.80
13412;DHT22;67102;51.666;6.880;2023-04-02T05:01:14;8.60;87.50
13412;DHT22;67102;51.666;6.880;2023-04-02T05:03:47;8.50;87.50
13412;DHT22;67102;51.666;6.880;2023-04-02T05:06:25;8.40;87.30
13412;DHT22;67102;51.666;6.880;2023-04-02T05:09:03;8.40;87.30
13412;DHT22;67102;51.666;6.880;2023-04-02T05:11:36;8.30;87.90
13412;DHT22;67102;51.666;6.880;2023-04-02T05:14:05;8.30;87.80
13412;DHT22;67102;51.666;6.880;2023-04-02T05:16:37;8.30;87.50
13412;DHT22;67102;51.666;6.880;2023-04-02T05:19:09;8.20;87.70
13412;DHT22;67102;51.666;6.880;2023-04-02T05:21:41;8.20;87.90
13412;DHT22;67102;51.666;6.880;2023-04-02T05:24:32;8.30;88.30
13412;DHT22;67102;51.666;6.880;2023-04-02T05:27:08;8.30;88.10
13412;DHT22;67102;51.666;6.880;2023-04-02T05:29:45;8.40;87.60
13412;DHT22;67102;51.666;6.880;2023-04-02T05:32:16;8.30;87.10
13412;DHT22;67102;51.666;6.880;2023-04-02T05:34:49;10.30;88.20
13412;DHT22;67102;51.666;6.880;2023-04-02T05:37:19;8.30;87.10
13412;DHT22;67102;51.666;6.880;2023-04-02T05:39:48;8.30;87.30
13412;DHT22;67102;51.666;6.880;2023-04-02T05:42:20;8.20;86.60
13412;DHT22;67102;51.666;6.880;2023-04-02T05:44:58;8.20;86.80
13412;DHT22;67102;51.666;6.880;2023-04-02T05:47:31;8.20;86.60
13412;DHT22;67102;51.666;6.880;2023-04-02T05:50:11;8.20;86.80
13412;DHT22;67102;51.666;6.880;2023-04-02T05:52:46;8.20;87.10
13412;DHT22;67102;51.666;6.880;2023-04-02T05:55:28;8.10;86.40
13412;DHT22;67102;51.666;6.880;2023-04-02T05:58:03;8.30;87.10
13412;DHT22;67102;51.666;6.880;2023-04-02T06:00:46;8.40;86.10
13412;DHT22;67102;51.666;6.880;2023-04-02T06:03:23;8.40;86.20
13412;DHT22;67102;51.666;6.880;2023-04-02T06:05:56;8.40;85.40
13412;DHT22;67102;51.666;6.880;2023-04-02T06:08:30;8.40;85.40
13412;DHT22;67102;51.666;6.880;2023-04-02T06:11:03;8.30;84.90
13412;DHT22;67102;51.666;6.880;2023-04-02T06:15:57;8.30;85.10
13412;DHT22;67102;51.666;6.880;2023-04-02T06:18:25;8.10;85.10
13412;DHT22;67102;51.666;6.880;2023-04-02T06:20:53;8.20;85.40
13412;DHT22;67102;51.666;6.880;2023-04-02T06:23:23;8.20;85.70
13412;DHT22;67102;51.666;6.880;2023-04-02T06:25:56;8.10;85.50
13412;DHT22;67102;51.666;6.880;2023-04-02T06:28:26;8.10;85.20
13412;DHT22;67102;51.666;6.880;2023-04-02T06:30:58;8.10;85.50
13412;DHT22;67102;51.666;6.880;2023-04-02T06:33:26;8.10;85.70
13412;DHT22;67102;51.666;6.880;2023-04-02T06:35:53;8.00;85.40
13412;DHT22;67102;51.666;6.880;2023-04-02T06:38:23;8.00;84.90
13412;DHT22;67102;51.666;6.880;2023-04-02T06:40:52;8.00;85.70
13412;DHT22;67102;51.666;6.880;2023-04-02T06:43:24;8.00;85.60
13412;DHT22;67102;51.666;6.880;2023-04-02T06:45:54;8.00;85.80
13412;DHT22;67102;51.666;6.880;2023-04-02T06:48:22;8.10;85.40
13412;DHT22;67102;51.666;6.880;2023-04-02T06:50:51;8.10;85.30
13412;DHT22;67102;51.666;6.880;2023-04-02T06:53:25;8.10;85.00
13412;DHT22;67102;51.666;6.880;2023-04-02T06:55:55;8.10;85.00
13412;DHT22;67102;51.666;6.880;2023-04-02T06:58:25;8.10;85.30
13412;DHT22;67102;51.666;6.880;2023-04-02T07:00:51;8.10;85.60
13412;DHT22;67102;51.666;6.880;2023-04-02T07:03:20;8.20;85.20
13412;DHT22;67102;51.666;6.880;2023-04-02T07:05:48;8.20;84.70
13412;DHT22;67102;51.666;6.880;2023-04-02T07:08:15;8.10;84.70
13412;DHT22;67102;51.666;6.880;2023-04-02T07:10:41;8.10;84.60
13412;DHT22;67102;51.666;6.880;2023-04-02T07:13:09;8.20;85.00
13412;DHT22;67102;51.666;6.880;2023-04-02T07:20:32;8.20;84.20
13412;DHT22;67102;51.666;6.880;2023-04-02T07:22:59;8.20;84.60
13412;DHT22;67102;51.666;6.880;2023-04-02T07:25:27;8.20;84.20
13412;DHT22;67102;51.666;6.880;2023-04-02T07:27:53;8.90;84.90
13412;DHT22;67102;51.666;6.880;2023-04-02T07:32:46;8.20;83.00
13412;DHT22;67102;51.666;6.880;2023-04-02T07:37:39;8.20;84.30
13412;DHT22;67102;51.666;6.880;2023-04-02T07:40:06;8.20;83.50
13412;DHT22;67102;51.666;6.880;2023-04-02T07:42:41;8.20;83.50
13412;DHT22;67102;51.666;6.880;2023-04-02T07:45:08;8.20;84.00
13412;DHT22;67102;51.666;6.880;2023-04-02T07:50:01;8.30;83.70
13412;DHT22;67102;51.666;6.880;2023-04-02T07:54:53;8.50;83.10
13412;DHT22;67102;51.666;6.880;2023-04-02T07:57:19;8.60;82.90
13412;DHT22;67102;51.666;6.880;2023-04-02T07:59:47;8.60;81.60
13412;DHT22;67102;51.666;6.880;2023-04-02T08:02:19;8.50;81.60
13412;DHT22;67102;51.666;6.880;2023-04-02T08:07:12;8.50;81.40
13412;DHT22;67102;51.666;6.880;2023-04-02T08:12:04;8.40;82.10
13412;DHT22;67102;51.666;6.880;2023-04-02T08:16:58;8.50;81.00
13412;DHT22;67102;51.666;6.880;2023-04-02T08:19:24;8.50;81.10
13412;DHT22;67102;51.666;6.880;2023-04-02T08:24:16;8.50;81.60
13412;DHT22;67102;51.666;6.880;2023-04-02T08:26:42;8.50;81.10
13412;DHT22;67102;51.666;6.880;2023-04-02T08:31:34;8.50;81.20
13412;DHT22;67102;51.666;6.880;2023-04-02T08:34:02;8.60;80.90
13412;DHT22;67102;51.666;6.880;2023-04-02T08:36:32;8.60;80.60
13412;DHT22;67102;51.666;6.880;2023-04-02T08:41:26;8.50;79.50
13412;DHT22;67102;51.666;6.880;2023-04-02T08:44:02;8.50;80.20
13412;DHT22;67102;51.666;6.880;2023-04-02T08:46:37;8.50;80.70
13412;DHT22;67102;51.666;6.880;2023-04-02T08:49:12;8.50;80.60
13412;DHT22;67102;51.666;6.880;2023-04-02T08:51:39;8.60;80.00
13412;DHT22;67102;51.666;6.880;2023-04-02T08:54:13;8.60;81.00
13412;DHT22;67102;51.666;6.880;2023-04-02T08:56:50;8.80;80.60
13412;DHT22;67102;51.666;6.880;2023-04-02T08:59:22;8.90;79.90
13412;DHT22;67102;51.666;6.880;2023-04-02T09:01:56;9.00;79.30
13412;DHT22;67102;51.666;6.880;2023-04-02T09:04:28;9.10;78.30
13412;DHT22;67102;51.666;6.880;2023-04-02T09:06:56;9.20;77.30
13412;DHT22;67102;51.666;6.880;2023-04-02T09:09:24;9.20;77.10
13412;DHT22;67102;51.666;6.880;2023-04-02T09:11:53;9.20;77.10
13412;DHT22;67102;51.666;6.880;2023-04-02T09:14:24;9.20;77.70
13412;DHT22;67102;51.666;6.880;2023-04-02T09:16:58;9.30;76.60
13412;DHT22;67102;51.666;6.880;2023-04-02T09:19:33;9.30;76.20
13412;DHT22;67102;51.666;6.880;2023-04-02T09:22:07;9.20;75.60
13412;DHT22;67102;51.666;6.880;2023-04-02T09:24:34;9.10;75.70
13412;DHT22;67102;51.666;6.880;2023-04-02T09:27:01;9.10;76.30
13412;DHT22;67102;51.666;6.880;2023-04-02T09:29:42;9.10;76.60
13412;DHT22;67102;51.666;6.880;2023-04-02T09:32:37;9.00;76.70
13412;DHT22;67102;51.666;6.880;2023-04-02T09:35:12;9.00;76.80
13412;DHT22;67102;51.666;6.880;2023-04-02T09:37:39;9.00;77.20
13412;DHT22;67102;51.666;6.880;2023-04-02T09:40:16;9.10;77.60
13412;DHT22;67102;51.666;6.880;2023-04-02T09:42:44;8.90;76.50
13412;DHT22;67102;51.666;6.880;2023-04-02T09:45:18;9.10;77.40
13412;DHT22;67102;51.666;6.880;2023-04-02T09:47:45;9.10;77.30
13412;DHT22;67102;51.666;6.880;2023-04-02T09:50:21;9.20;76.20
13412;DHT22;67102;51.666;6.880;2023-04-02T09:55:20;9.30;75.40
13412;DHT22;67102;51.666;6.880;2023-04-02T09:57:48;9.30;75.70
13412;DHT22;67102;51.666;6.880;2023-04-02T10:00:18;9.30;76.60
13412;DHT22;67102;51.666;6.880;2023-04-02T10:02:46;9.30;76.20
13412;DHT22;67102;51.666;6.880;2023-04-02T10:05:26;9.40;76.90
13412;DHT22;67102;51.666;6.880;2023-04-02T10:07:53;9.40;76.40
13412;DHT22;67102;51.666;6.880;2023-04-02T10:10:33;9.40;75.50
13412;DHT22;67102;51.666;6.880;2023-04-02T10:13:03;9.30;73.70
13412;DHT22;67102;51.666;6.880;2023-04-02T10:15:34;9.10;74.90
13412;DHT22;67102;51.666;6.880;2023-04-02T10:18:06;9.20;75.60
13412;DHT22;67102;51.666;6.880;2023-04-02T10:20:40;9.20;76.20
13412;DHT22;67102;51.666;6.880;2023-04-02T10:23:14;9.20;75.60
13412;DHT22;67102;51.666;6.880;2023-04-02T10:25:45;9.20;75.60
13412;DHT22;67102;51.666;6.880;2023-04-02T10:28:24;9.10;74.90
13412;DHT22;67102;51.666;6.880;2023-04-02T10:31:01;9.10;74.70
13412;DHT22;67102;51.666;6.880;2023-04-02T10:33:32;9.10;75.50
13412;DHT22;67102;51.666;6.880;2023-04-02T10:36:08;9.20;75.90
13412;DHT22;67102;51.666;6.880;2023-04-02T10:38:41;9.30;74.70
13412;DHT22;67102;51.666;6.880;2023-04-02T10:41:18;9.40;74.50
13412;DHT22;67102;51.666;6.880;2023-04-02T10:44:17;9.40;74.10
13412;DHT22;67102;51.666;6.880;2023-04-02T10:47:16;9.50;74.00
13412;DHT22;67102;51.666;6.880;2023-04-02T10:49:51;9.50;72.10
13412;DHT22;67102;51.666;6.880;2023-04-02T10:52:28;9.50;72.70
13412;DHT22;67102;51.666;6.880;2023-04-02T10:54:58;9.60;72.30
13412;DHT22;67102;51.666;6.880;2023-04-02T10:57:32;9.60;71.90
13412;DHT22;67102;51.666;6.880;2023-04-02T11:00:05;9.50;72.30
13412;DHT22;67102;51.666;6.880;2023-04-02T11:02:42;9.70;72.70
13412;DHT22;67102;51.666;6.880;2023-04-02T11:05:20;9.70;71.80
13412;DHT22;67102;51.666;6.880;2023-04-02T11:08:10;9.80;71.70
13412;DHT22;67102;51.666;6.880;2023-04-02T11:10:45;9.80;71.40
13412;DHT22;67102;51.666;6.880;2023-04-02T11:13:17;9.90;71.50
13412;DHT22;67102;51.666;6.880;2023-04-02T11:15:46;10.00;70.40
13412;DHT22;67102;51.666;6.880;2023-04-02T11:18:26;10.00;69.90
13412;DHT22;67102;51.666;6.880;2023-04-02T11:20:59;10.00;68.10
13412;DHT22;67102;51.666;6.880;2023-04-02T11:23:33;10.00;70.20
13412;DHT22;67102;51.666;6.880;2023-04-02T11:26:38;10.00;70.20
13412;DHT22;67102;51.666;6.880;2023-04-02T11:29:16;10.10;69.90
13412;DHT22;67102;51.666;6.880;2023-04-02T11:31:44;10.10;70.60
13412;DHT22;67102;51.666;6.880;2023-04-02T11:34:13;10.30;68.50
13412;DHT22;67102;51.666;6.880;2023-04-02T11:37:01;10.30;69.30
13412;DHT22;67102;51.666;6.880;2023-04-02T11:40:02;10.40;68.20
13412;DHT22;67102;51.666;6.880;2023-04-02T11:42:32;10.50;67.40
13412;DHT22;67102;51.666;6.880;2023-04-02T11:48:27;10.40;66.50
13412;DHT22;67102;51.666;6.880;2023-04-02T11:50:55;10.40;66.40
13412;DHT22;67102;51.666;6.880;2023-04-02T11:53:26;10.40;66.10
13412;DHT22;67102;51.666;6.880;2023-04-02T11:56:17;10.40;67.30
13412;DHT22;67102;51.666;6.880;2023-04-02T11:58:53;10.40;66.50
13412;DHT22;67102;51.666;6.880;2023-04-02T12:01:34;10.50;66.40
13412;DHT22;67102;51.666;6.880;2023-04-02T12:07:22;10.50;65.30
13412;DHT22;67102;51.666;6.880;2023-04-02T12:09:55;10.60;67.00
13412;DHT22;67102;51.666;6.880;2023-04-02T12:12:27;10.80;67.30
13412;DHT22;67102;51.666;6.880;2023-04-02T12:14:58;10.80;65.30
13412;DHT22;67102;51.666;6.880;2023-04-02T12:17:28;10.90;64.40
13412;DHT22;67102;51.666;6.880;2023-04-02T12:19:56;10.90;64.30
13412;DHT22;67102;51.666;6.880;2023-04-02T12:22:25;11.00;66.20
13412;DHT22;67102;51.666;6.880;2023-04-02T12:24:54;11.10;63.30
13412;DHT22;67102;51.666;6.880;2023-04-02T12:27:26;11.10;64.20
13412;DHT22;67102;51.666;6.880;2023-04-02T12:29:54;11.10;63.80
13412;DHT22;67102;51.666;6.880;2023-04-02T12:32:26;11.30;64.60
13412;DHT22;67102;51.666;6.880;2023-04-02T12:34:53;11.30;63.10
13412;DHT22;67102;51.666;6.880;2023-04-02T12:37:22;11.30;63.80
13412;DHT22;67102;51.666;6.880;2023-04-02T12:39:54;11.30;62.50
13412;DHT22;67102;51.666;6.880;2023-04-02T12:42:27;11.40;62.00
13412;DHT22;67102;51.666;6.880;2023-04-02T12:44:54;11.30;61.70
13412;DHT22;67102;51.666;6.880;2023-04-02T12:47:20;11.30;62.50
13412;DHT22;67102;51.666;6.880;2023-04-02T12:49:46;11.20;60.40
13412;DHT22;67102;51.666;6.880;2023-04-02T12:52:14;11.00;61.20
13412;DHT22;67102;51.666;6.880;2023-04-02T12:54:45;10.90;61.00
13412;DHT22;67102;51.666;6.880;2023-04-02T12:57:33;10.80;62.70
13412;DHT22;67102;51.666;6.880;2023-04-02T13:00:25;10.80;62.90
13412;DHT22;67102;51.666;6.880;2023-04-02T13:03:00;10.80;63.70
13412;DHT22;67102;51.666;6.880;2023-04-02T13:05:36;10.70;63.00
13412;DHT22;67102;51.666;6.880;2023-04-02T13:08:04;10.80;64.00
13412;DHT22;67102;51.666;6.880;2023-04-02T13:10:30;10.90;63.50
13412;DHT22;67102;51.666;6.880;2023-04-02T13:12:59;10.90;61.90
13412;DHT22;67102;51.666;6.880;2023-04-02T13:15:27;10.90;63.70
13412;DHT22;67102;51.666;6.880;2023-04-02T13:18:04;11.00;64.50
13412;DHT22;67102;51.666;6.880;2023-04-02T13:20:33;11.10;62.30
13412;DHT22;67102;51.666;6.880;2023-04-02T13:23:01;11.20;63.20
13412;DHT22;67102;51.666;6.880;2023-04-02T13:25:30;11.20;60.50
13412;DHT22;67102;51.666;6.880;2023-04-02T13:27:58;11.20;61.60
13412;DHT22;67102;51.666;6.880;2023-04-02T13:30:26;11.40;62.50
13412;DHT22;67102;51.666;6.880;2023-04-02T13:32:53;11.40;63.50
13412;DHT22;67102;51.666;6.880;2023-04-02T13:35:20;11.50;62.20
13412;DHT22;67102;51.666;6.880;2023-04-02T13:37:46;11.60;62.60
13412;DHT22;67102;51.666;6.880;2023-04-02T13:40:13;11.70;62.70
13412;DHT22;67102;51.666;6.880;2023-04-02T13:42:41;11.80;64.10
13412;DHT22;67102;51.666;6.880;2023-04-02T13:45:18;11.90;61.60
13412;DHT22;67102;51.666;6.880;2023-04-02T13:47:46;12.00;61.60
13412;DHT22;67102;51.666;6.880;2023-04-02T13:50:15;12.00;59.70
13412;DHT22;67102;51.666;6.880;2023-04-02T13:52:42;12.00;60.40
13412;DHT22;67102;51.666;6.880;2023-04-02T13:55:09;12.00;58.50
13412;DHT22;67102;51.666;6.880;2023-04-02T13:57:36;11.90;59.50
13412;DHT22;67102;51.666;6.880;2023-04-02T14:00:02;11.80;59.50
13412;DHT22;67102;51.666;6.880;2023-04-02T14:02:31;11.80;60.00
13412;DHT22;67102;51.666;6.880;2023-04-02T14:05:06;11.80;59.40
13412;DHT22;67102;51.666;6.880;2023-04-02T14:07:46;11.80;61.00
13412;DHT22;67102;51.666;6.880;2023-04-02T14:10:27;11.80;60.30
13412;DHT22;67102;51.666;6.880;2023-04-02T14:13:12;11.70;59.20
13412;DHT22;67102;51.666;6.880;2023-04-02T14:15:58;11.70;59.40
13412;DHT22;67102;51.666;6.880;2023-04-02T14:18:51;11.80;58.80
13412;DHT22;67102;51.666;6.880;2023-04-02T14:21:32;11.90;61.20
13412;DHT22;67102;51.666;6.880;2023-04-02T14:24:17;11.90;59.00
13412;DHT22;67102;51.666;6.880;2023-04-02T14:26:54;11.90;58.70
13412;DHT22;67102;51.666;6.880;2023-04-02T14:29:34;12.00;59.10
13412;DHT22;67102;51.666;6.880;2023-04-02T14:32:05;12.10;58.10
13412;DHT22;67102;51.666;6.880;2023-04-02T14:34:39;12.10;58.50
13412;DHT22;67102;51.666;6.880;2023-04-02T14:37:15;12.10;57.30
13412;DHT22;67102;51.666;6.880;2023-04-02T14:39:53;12.10;58.20
13412;DHT22;67102;51.666;6.880;2023-04-02T14:42:28;12.20;57.60
13412;DHT22;67102;51.666;6.880;2023-04-02T14:44:59;12.10;57.40
13412;DHT22;67102;51.666;6.880;2023-04-02T14:47:32;12.00;56.60
13412;DHT22;67102;51.666;6.880;2023-04-02T14:50:09;11.90;57.20
13412;DHT22;67102;51.666;6.880;2023-04-02T14:52:38;11.90;57.50
13412;DHT22;67102;51.666;6.880;2023-04-02T14:55:12;11.90;57.20
13412;DHT22;67102;51.666;6.880;2023-04-02T14:57:44;11.80;56.70
13412;DHT22;67102;51.666;6.880;2023-04-02T15:00:25;11.70;57.10
13412;DHT22;67102;51.666;6.880;2023-04-02T15:02:55;11.60;57.50
13412;DHT22;67102;51.666;6.880;2023-04-02T15:05:28;11.60;57.90
13412;DHT22;67102;51.666;6.880;2023-04-02T15:08:04;11.50;58.00
13412;DHT22;67102;51.666;6.880;2023-04-02T15:10:35;11.60;57.70
13412;DHT22;67102;51.666;6.880;2023-04-02T15:13:10;11.60;58.10
13412;DHT22;67102;51.666;6.880;2023-04-02T15:15:43;11.60;58.40
13412;DHT22;67102;51.666;6.880;2023-04-02T15:18:13;11.70;58.20
13412;DHT22;67102;51.666;6.880;2023-04-02T15:20:49;11.70;59.00
13412;DHT22;67102;51.666;6.880;2023-04-02T15:23:30;11.70;58.90
13412;DHT22;67102;51.666;6.880;2023-04-02T15:26:06;11.70;58.90
13412;DHT22;67102;51.666;6.880;2023-04-02T15:28:41;11.70;58.40
13412;DHT22;67102;51.666;6.880;2023-04-02T15:31:12;11.70;56.80
13412;DHT22;67102;51.666;6.880;2023-04-02T15:33:41;11.60;57.00
13412;DHT22;67102;51.666;6.880;2023-04-02T15:39:36;11.60;57.90
13412;DHT22;67102;51.666;6.880;2023-04-02T15:42:18;11.90;58.50
13412;DHT22;67102;51.666;6.880;2023-04-02T15:45:06;11.60;58.30
13412;DHT22;67102;51.666;6.880;2023-04-02T15:47:52;11.60;58.90
13412;DHT22;67102;51.666;6.880;2023-04-02T15:50:50;11.70;58.50
13412;DHT22;67102;51.666;6.880;2023-04-02T15:53:36;11.70;58.60
13412;DHT22;67102;51.666;6.880;2023-04-02T15:56:16;11.70;58.30
13412;DHT22;67102;51.666;6.880;2023-04-02T15:59:05;11.80;57.00
13412;DHT22;67102;51.666;6.880;2023-04-02T16:02:05;11.70;57.40
13412;DHT22;67102;51.666;6.880;2023-04-02T16:04:49;11.60;58.20
13412;DHT22;67102;51.666;6.880;2023-04-02T16:07:23;11.60;58.30
13412;DHT22;67102;51.666;6.880;2023-04-02T16:10:05;11.70;57.40
13412;DHT22;67102;51.666;6.880;2023-04-02T16:12:36;11.50;57.00
13412;DHT22;67102;51.666;6.880;2023-04-02T16:15:10;11.50;57.00
13412;DHT22;67102;51.666;6.880;2023-04-02T16:17:41;11.50;57.30
13412;DHT22;67102;51.666;6.880;2023-04-02T16:20:17;11.50;57.80
13412;DHT22;67102;51.666;6.880;2023-04-02T16:22:48;11.40;57.90
13412;DHT22;67102;51.666;6.880;2023-04-02T16:25:22;11.50;58.10
13412;DHT22;67102;51.666;6.880;2023-04-02T16:27:55;11.50;58.00
13412;DHT22;67102;51.666;6.880;2023-04-02T16:30:34;11.40;56.70
13412;DHT22;67102;51.666;6.880;2023-04-02T16:33:13;11.30;57.70
13412;DHT22;67102;51.666;6.880;2023-04-02T16:35:51;11.20;57.40
13412;DHT22;67102;51.666;6.880;2023-04-02T16:38:33;11.20;57.40
13412;DHT22;67102;51.666;6.880;2023-04-02T16:41:14;11.10;57.40
13412;DHT22;67102;51.666;6.880;2023-04-02T16:43:51;11.10;57.50
13412;DHT22;67102;51.666;6.880;2023-04-02T16:46:25;11.00;57.20
13412;DHT22;67102;51.666;6.880;2023-04-02T16:49:01;11.00;57.30
13412;DHT22;67102;51.666;6.880;2023-04-02T16:51:37;11.00;56.70
13412;DHT22;67102;51.666;6.880;2023-04-02T16:54:09;11.00;57.40
13412;DHT22;67102;51.666;6.880;2023-04-02T16:56:47;11.00;57.50
13412;DHT22;67102;51.666;6.880;2023-04-02T16:59:22;11.00;57.20
13412;DHT22;67102;51.666;6.880;2023-04-02T17:01:57;11.00;57.80
13412;DHT22;67102;51.666;6.880;2023-04-02T17:04:44;11.10;58.30
13412;DHT22;67102;51.666;6.880;2023-04-02T17:07:33;11.00;57.20
13412;DHT22;67102;51.666;6.880;2023-04-02T17:10:13;11.00;58.00
13412;DHT22;67102;51.666;6.880;2023-04-02T17:13:01;11.10;56.80